createdAt,value
2019-03-02T00:01:31.390Z,6.08
2019-03-02T00:04:02.148Z,6.11
2019-03-02T00:06:35.746Z,6.11
2019-03-02T00:09:05.703Z,6.06
2019-03-02T00:11:37.083Z,5.98
2019-03-02T00:14:09.766Z,6.05
2019-03-02T00:16:43.290Z,5.94
2019-03-02T00:19:11.515Z,5.83
2019-03-02T00:21:41.442Z,5.90
2019-03-02T00:24:11.739Z,5.94
2019-03-02T00:26:46.031Z,5.90
2019-03-02T00:29:17.688Z,5.83
2019-03-02T00:31:49.975Z,5.88
2019-03-02T00:34:20.921Z,5.58
2019-03-02T00:36:54.820Z,5.59
2019-03-02T00:39:22.306Z,5.56
2019-03-02T00:41:52.774Z,5.51
2019-03-02T00:44:22.691Z,5.46
2019-03-02T00:46:52.355Z,5.59
2019-03-02T00:49:22.825Z,5.61
2019-03-02T00:51:52.423Z,5.58
2019-03-02T00:54:21.874Z,5.65
2019-03-02T00:56:51.305Z,5.54
2019-03-02T00:59:22.427Z,5.74
2019-03-02T01:01:54.959Z,5.68
2019-03-02T01:04:25.983Z,5.54
2019-03-02T01:06:56.596Z,5.72
2019-03-02T01:09:26.068Z,5.64
2019-03-02T01:11:56.065Z,5.65
2019-03-02T01:14:28.729Z,5.72
2019-03-02T01:16:57.083Z,5.71
2019-03-02T01:19:26.310Z,5.69
2019-03-02T01:21:56.031Z,5.67
2019-03-02T01:24:27.779Z,5.66
2019-03-02T01:27:03.251Z,5.61
2019-03-02T01:29:32.804Z,5.60
2019-03-02T01:32:02.254Z,5.58
2019-03-02T01:34:32.391Z,5.49
2019-03-02T01:37:04.881Z,5.54
2019-03-02T01:39:33.547Z,5.55
2019-03-02T01:42:02.728Z,5.50
2019-03-02T01:44:31.887Z,5.51
2019-03-02T01:47:01.404Z,5.55
2019-03-02T01:49:33.521Z,5.56
2019-03-02T01:52:03.091Z,5.53
2019-03-02T01:54:34.500Z,5.59
2019-03-02T01:57:04.785Z,5.51
2019-03-02T01:59:35.485Z,5.56
2019-03-02T02:02:07.466Z,5.56
2019-03-02T02:04:39.432Z,5.60
2019-03-02T02:07:09.211Z,5.61
2019-03-02T02:09:40.521Z,5.66
2019-03-02T02:12:10.428Z,5.64
2019-03-02T02:14:40.659Z,5.61
2019-03-02T02:17:10.123Z,5.64
2019-03-02T02:19:39.714Z,5.63
2019-03-02T02:22:10.808Z,5.61
2019-03-02T02:24:40.338Z,5.64
2019-03-02T02:27:09.808Z,5.64
2019-03-02T02:29:43.389Z,5.65
2019-03-02T02:32:11.503Z,5.66
2019-03-02T02:34:42.004Z,5.63
2019-03-02T02:37:14.789Z,5.63
2019-03-02T02:39:44.244Z,5.60
2019-03-02T02:42:15.838Z,5.65
2019-03-02T02:44:50.232Z,5.61
2019-03-02T02:47:19.411Z,5.69
2019-03-02T02:49:51.113Z,5.60
2019-03-02T02:52:27.891Z,5.63
2019-03-02T02:54:52.250Z,5.63
2019-03-02T02:57:24.012Z,5.65
2019-03-02T02:59:55.081Z,5.61
2019-03-02T03:02:25.545Z,5.60
2019-03-02T03:04:55.030Z,5.51
2019-03-02T03:07:25.016Z,5.46
2019-03-02T03:10:06.025Z,5.49
2019-03-02T03:12:35.230Z,5.56
2019-03-02T03:15:05.572Z,5.57
2019-03-02T03:17:36.658Z,5.62
2019-03-02T03:20:10.729Z,5.51
2019-03-02T03:22:40.893Z,5.59
2019-03-02T03:25:18.080Z,5.61
2019-03-02T03:27:47.648Z,5.64
2019-03-02T03:30:17.637Z,5.66
2019-03-02T03:32:54.818Z,5.61
2019-03-02T03:35:19.878Z,5.45
2019-03-02T03:37:51.383Z,5.52
2019-03-02T03:40:24.869Z,5.44
2019-03-02T03:42:53.139Z,5.60
2019-03-02T03:45:23.929Z,5.63
2019-03-02T03:47:57.728Z,5.61
2019-03-02T03:50:30.058Z,5.67
2019-03-02T03:52:59.499Z,5.69
2019-03-02T03:55:28.669Z,5.67
2019-03-02T03:58:01.999Z,5.63
2019-03-02T04:00:34.216Z,5.67
2019-03-02T04:03:01.502Z,5.58
2019-03-02T04:05:31.264Z,5.38
2019-03-02T04:08:03.503Z,5.30
2019-03-02T04:10:34.188Z,5.24
2019-03-02T04:13:04.785Z,5.42
2019-03-02T04:15:41.460Z,5.31
2019-03-02T04:18:50.198Z,5.16
2019-03-02T04:21:23.478Z,5.04
2019-03-02T04:24:01.689Z,5.01
2019-03-02T04:26:36.398Z,5.03
2019-03-02T04:29:11.566Z,5.22
2019-03-02T04:31:44.150Z,5.18
2019-03-02T04:34:20.593Z,5.37
2019-03-02T04:36:48.912Z,5.54
2019-03-02T04:39:19.231Z,5.68
2019-03-02T04:41:49.684Z,5.59
2019-03-02T04:44:18.964Z,5.59
2019-03-02T04:46:51.506Z,5.42
2019-03-02T04:49:21.260Z,5.17
2019-03-02T04:51:50.436Z,4.99
2019-03-02T04:54:19.876Z,4.89
2019-03-02T04:56:49.446Z,4.82
2019-03-02T04:59:21.925Z,4.71
2019-03-02T05:01:51.888Z,4.67
2019-03-02T05:04:21.846Z,4.67
2019-03-02T05:06:54.539Z,4.70
2019-03-02T05:09:22.183Z,4.76
2019-03-02T05:11:51.354Z,4.71
2019-03-02T05:14:20.794Z,4.74
2019-03-02T05:16:50.539Z,4.77
2019-03-02T05:19:20.554Z,4.79
2019-03-02T05:21:50.307Z,4.81
2019-03-02T05:24:20.113Z,4.70
2019-03-02T05:26:53.523Z,4.72
2019-03-02T05:29:23.642Z,4.73
2019-03-02T05:31:53.106Z,4.81
2019-03-02T05:34:22.595Z,4.99
2019-03-02T05:36:52.083Z,4.92
2019-03-02T05:39:23.505Z,5.08
2019-03-02T05:41:53.285Z,5.00
2019-03-02T05:44:22.754Z,5.08
2019-03-02T05:46:53.190Z,5.20
2019-03-02T05:49:27.187Z,5.03
2019-03-02T05:51:56.723Z,5.19
2019-03-02T05:54:26.221Z,5.14
2019-03-02T05:56:56.488Z,5.32
2019-03-02T05:59:27.797Z,5.34
2019-03-02T06:01:57.974Z,5.26
2019-03-02T06:04:31.665Z,5.30
2019-03-02T06:07:04.550Z,5.27
2019-03-02T06:09:34.197Z,5.20
2019-03-02T06:12:03.906Z,5.30
2019-03-02T06:14:33.051Z,5.43
2019-03-02T06:17:02.251Z,5.28
2019-03-02T06:19:31.706Z,5.17
2019-03-02T06:22:03.193Z,5.28
2019-03-02T06:24:37.613Z,5.22
2019-03-02T06:27:10.859Z,5.22
2019-03-02T06:29:40.239Z,5.29
2019-03-02T06:32:09.777Z,5.37
2019-03-02T06:34:38.940Z,5.29
2019-03-02T06:37:12.936Z,5.24
2019-03-02T06:39:44.437Z,5.14
2019-03-02T06:42:15.253Z,5.09
2019-03-02T06:44:47.101Z,5.15
2019-03-02T06:47:17.029Z,5.18
2019-03-02T06:49:48.802Z,5.15
2019-03-02T06:52:25.169Z,5.16
2019-03-02T06:54:52.956Z,5.28
2019-03-02T06:57:22.370Z,5.27
2019-03-02T06:59:55.667Z,5.28
2019-03-02T07:02:35.830Z,5.29
2019-03-02T07:05:07.492Z,5.36
2019-03-02T07:07:36.994Z,5.46
2019-03-02T07:10:09.665Z,5.37
2019-03-02T07:12:41.756Z,5.24
2019-03-02T07:15:14.109Z,5.12
2019-03-02T07:18:10.134Z,5.29
2019-03-02T07:20:40.416Z,5.23
2019-03-02T07:23:10.707Z,5.39
2019-03-02T07:25:44.042Z,5.46
2019-03-02T07:28:12.175Z,5.48
2019-03-02T07:30:41.945Z,5.56
2019-03-02T07:33:11.664Z,5.68
2019-03-02T07:35:43.422Z,5.65
2019-03-02T07:38:16.993Z,5.72
2019-03-02T07:40:49.348Z,5.73
2019-03-02T07:43:19.387Z,5.69
2019-03-02T07:45:48.865Z,5.63
2019-03-02T07:48:18.366Z,5.71
2019-03-02T07:50:48.172Z,5.72
2019-03-02T07:53:18.392Z,5.80
2019-03-02T07:55:57.429Z,5.70
2019-03-02T07:58:27.104Z,5.80
2019-03-02T08:00:56.548Z,5.78
2019-03-02T08:03:28.282Z,5.77
2019-03-02T08:06:04.441Z,5.80
2019-03-02T08:08:33.597Z,5.82
2019-03-02T08:11:04.018Z,5.73
2019-03-02T08:13:36.612Z,5.81
2019-03-02T08:16:04.399Z,5.83
2019-03-02T08:18:34.825Z,5.83
2019-03-02T08:21:05.139Z,5.83
2019-03-02T08:23:34.129Z,5.88
2019-03-02T08:26:03.593Z,5.89
2019-03-02T08:28:33.865Z,6.06
2019-03-02T08:31:05.493Z,5.86
2019-03-02T08:33:35.190Z,5.62
2019-03-02T08:36:07.989Z,5.73
2019-03-02T08:38:39.440Z,5.80
2019-03-02T08:41:10.096Z,5.75
2019-03-02T08:43:39.649Z,5.83
2019-03-02T08:46:09.165Z,5.67
2019-03-02T08:48:40.883Z,5.89
2019-03-02T08:51:12.715Z,6.00
2019-03-02T08:53:42.351Z,6.00
2019-03-02T08:56:14.157Z,6.01
2019-03-02T08:58:43.352Z,6.15
2019-03-02T09:01:15.440Z,6.22
2019-03-02T09:03:43.973Z,6.16
2019-03-02T09:06:13.179Z,6.14
2019-03-02T09:08:43.330Z,6.18
2019-03-02T09:11:13.018Z,6.15
2019-03-02T09:13:42.537Z,6.23
2019-03-02T09:16:13.010Z,6.24
2019-03-02T09:18:45.734Z,6.16
2019-03-02T09:21:13.666Z,6.25
2019-03-02T09:23:43.496Z,6.35
2019-03-02T09:26:14.964Z,6.40
2019-03-02T09:28:46.243Z,6.39
2019-03-02T09:31:25.671Z,6.34
2019-03-02T09:33:49.505Z,6.46
2019-03-02T09:36:18.746Z,6.33
2019-03-02T09:38:50.063Z,6.37
2019-03-02T09:41:22.010Z,6.47
2019-03-02T09:43:51.248Z,6.40
2019-03-02T09:46:24.824Z,6.37
2019-03-02T09:48:56.935Z,6.33
2019-03-02T09:51:24.756Z,6.17
2019-03-02T09:53:55.491Z,6.32
2019-03-02T09:56:24.678Z,6.25
2019-03-02T09:58:57.969Z,6.43
2019-03-02T10:01:25.880Z,6.33
2019-03-02T10:03:55.096Z,6.51
2019-03-02T10:06:25.340Z,6.39
2019-03-02T10:08:58.436Z,6.22
2019-03-02T10:11:31.990Z,6.05
2019-03-02T10:14:26.277Z,6.33
2019-03-02T10:16:56.345Z,6.49
2019-03-02T10:19:28.901Z,6.33
2019-03-02T10:21:57.755Z,6.63
2019-03-02T10:24:27.118Z,6.53
2019-03-02T10:26:57.013Z,6.63
2019-03-02T10:29:27.119Z,6.59
2019-03-02T10:31:56.877Z,6.54
2019-03-02T10:34:29.686Z,6.43
2019-03-02T10:36:59.972Z,6.52
2019-03-02T10:39:32.768Z,6.72
2019-03-02T10:42:00.886Z,6.59
2019-03-02T10:44:32.314Z,6.69
2019-03-02T10:47:03.015Z,6.68
2019-03-02T10:49:33.198Z,6.82
2019-03-02T10:52:02.735Z,6.79
2019-03-02T10:54:34.908Z,6.85
2019-03-02T10:57:03.357Z,6.92
2019-03-02T10:59:32.849Z,6.96
2019-03-02T11:02:02.341Z,7.00
2019-03-02T11:04:50.770Z,6.82
2019-03-02T11:07:36.968Z,6.88
2019-03-02T11:10:36.205Z,6.93
2019-03-02T11:13:20.787Z,7.00
2019-03-02T11:16:20.937Z,7.04
2019-03-02T11:19:20.934Z,7.14
2019-03-02T11:22:10.765Z,7.33
2019-03-02T11:25:05.624Z,7.31
2019-03-02T11:27:45.902Z,7.31
2019-03-02T11:30:32.908Z,7.35
2019-03-02T11:33:30.978Z,7.42
2019-03-02T11:36:18.588Z,7.43
2019-03-02T11:39:13.820Z,7.53
2019-03-02T11:41:54.609Z,7.39
2019-03-02T11:44:38.196Z,7.54
2019-03-02T11:47:24.150Z,7.52
2019-03-02T11:50:14.307Z,7.56
2019-03-02T11:53:06.147Z,7.64
2019-03-02T11:56:11.898Z,7.70
2019-03-02T11:58:59.876Z,7.75
2019-03-02T12:01:52.461Z,7.71
2019-03-02T12:04:48.997Z,7.50
2019-03-02T12:07:34.077Z,7.50
2019-03-02T12:10:13.126Z,7.57
2019-03-02T12:13:00.741Z,7.71
2019-03-02T12:15:51.770Z,7.90
2019-03-02T12:18:31.186Z,7.97
2019-03-02T12:21:26.800Z,8.17
2019-03-02T12:24:15.162Z,8.24
2019-03-02T12:27:13.043Z,8.18
2019-03-02T12:30:00.350Z,8.53
2019-03-02T12:33:05.858Z,8.36
2019-03-02T12:36:07.805Z,8.37
2019-03-02T12:38:56.277Z,8.40
2019-03-02T12:41:33.020Z,8.48
2019-03-02T12:44:27.845Z,8.44
2019-03-02T12:47:21.257Z,8.48
2019-03-02T12:50:09.408Z,8.20
2019-03-02T12:52:57.570Z,8.16
2019-03-02T12:55:49.035Z,8.28
2019-03-02T12:58:26.830Z,8.53
2019-03-02T13:01:07.561Z,8.35
2019-03-02T13:03:57.728Z,8.44
2019-03-02T13:06:48.780Z,8.50
2019-03-02T13:09:36.812Z,8.67
2019-03-02T13:12:23.725Z,8.66
2019-03-02T13:15:11.979Z,8.54
2019-03-02T13:18:04.026Z,8.45
2019-03-02T13:20:57.333Z,8.70
2019-03-02T13:23:34.084Z,8.84
2019-03-02T13:26:20.671Z,8.80
2019-03-02T13:29:09.126Z,8.82
2019-03-02T13:31:57.294Z,8.79
2019-03-02T13:34:35.663Z,8.84
2019-03-02T13:37:24.460Z,9.09
2019-03-02T13:40:16.050Z,9.01
2019-03-02T13:43:04.551Z,8.64
2019-03-02T13:45:43.155Z,8.83
2019-03-02T13:48:32.796Z,9.05
2019-03-02T13:51:19.617Z,8.88
2019-03-02T13:54:11.429Z,8.85
2019-03-02T13:57:10.417Z,9.08
2019-03-02T14:00:07.860Z,9.28
2019-03-02T14:03:01.080Z,9.53
2019-03-02T14:05:49.299Z,9.56
2019-03-02T14:08:35.896Z,9.54
2019-03-02T14:11:23.586Z,9.51
2019-03-02T14:14:09.353Z,9.46
2019-03-02T14:17:08.382Z,9.47
2019-03-02T14:19:55.759Z,9.40
2019-03-02T14:22:44.839Z,9.49
2019-03-02T14:25:30.181Z,9.60
2019-03-02T14:28:36.563Z,9.50
2019-03-02T14:31:20.385Z,9.49
2019-03-02T14:34:09.279Z,9.61
2019-03-02T14:37:07.943Z,9.77
2019-03-02T14:40:02.392Z,9.60
2019-03-02T14:42:49.226Z,9.81
2019-03-02T14:45:26.988Z,9.75
2019-03-02T14:48:14.857Z,9.86
2019-03-02T14:51:17.013Z,9.85
2019-03-02T14:54:08.954Z,9.84
2019-03-02T14:56:44.908Z,9.70
2019-03-02T14:59:32.184Z,9.56
2019-03-02T15:02:19.709Z,9.56
2019-03-02T15:04:58.968Z,9.45
2019-03-02T15:07:38.562Z,9.36
2019-03-02T15:10:28.400Z,9.60
2019-03-02T15:13:15.409Z,10.16
2019-03-02T15:15:58.639Z,10.64
2019-03-02T15:18:46.256Z,10.71
2019-03-02T15:21:37.797Z,11.26
2019-03-02T15:24:29.322Z,11.08
2019-03-02T15:27:09.267Z,10.93
2019-03-02T15:29:57.195Z,10.20
2019-03-02T15:32:45.561Z,9.96
2019-03-02T15:35:33.590Z,9.93
2019-03-02T15:38:14.261Z,9.58
2019-03-02T15:41:05.335Z,9.73
2019-03-02T15:43:59.843Z,9.60
2019-03-02T15:46:37.177Z,9.55
2019-03-02T15:49:40.276Z,9.63
2019-03-02T15:52:27.229Z,9.62
2019-03-02T15:55:25.809Z,9.62
2019-03-02T15:58:27.108Z,9.61
2019-03-02T16:01:13.349Z,9.50
2019-03-02T16:04:11.268Z,9.52
2019-03-02T16:06:47.056Z,9.46
2019-03-02T16:09:36.640Z,9.46
2019-03-02T16:12:13.692Z,9.55
2019-03-02T16:15:01.543Z,9.63
2019-03-02T16:17:52.948Z,9.60
2019-03-02T16:20:32.361Z,9.64
2019-03-02T16:23:39.047Z,9.71
2019-03-02T16:26:31.244Z,9.73
2019-03-02T16:29:20.765Z,9.71
2019-03-02T16:32:01.527Z,9.73
2019-03-02T16:34:56.713Z,9.72
2019-03-02T16:37:50.083Z,9.63
2019-03-02T16:40:40.458Z,9.55
2019-03-02T16:43:27.203Z,9.48
2019-03-02T16:46:03.743Z,9.56
2019-03-02T16:48:52.302Z,9.61
2019-03-02T16:51:45.448Z,9.58
2019-03-02T16:54:34.180Z,9.58
2019-03-02T16:57:16.385Z,9.46
2019-03-02T17:00:10.114Z,9.50
2019-03-02T17:03:07.910Z,9.57
2019-03-02T17:05:59.271Z,9.39
2019-03-02T17:08:47.712Z,9.37
2019-03-02T17:11:51.398Z,9.35
2019-03-02T17:14:47.157Z,9.31
2019-03-02T17:17:45.310Z,9.29
2019-03-02T17:20:32.274Z,9.33
2019-03-02T17:23:42.562Z,9.31
2019-03-02T17:26:31.720Z,9.40
2019-03-02T17:29:27.717Z,9.37
2019-03-02T17:32:18.721Z,9.30
2019-03-02T17:35:07.846Z,9.20
2019-03-02T17:37:56.067Z,9.25
2019-03-02T17:40:43.543Z,9.29
2019-03-02T17:43:24.835Z,9.41
2019-03-02T17:46:14.143Z,9.27
2019-03-02T17:49:07.741Z,9.34
2019-03-02T17:51:46.246Z,9.24
2019-03-02T17:54:42.121Z,9.18
2019-03-02T17:57:29.101Z,9.13
2019-03-02T18:00:27.168Z,9.23
2019-03-02T18:03:24.042Z,9.18
2019-03-02T18:06:06.793Z,9.18
2019-03-02T18:08:44.980Z,9.24
2019-03-02T18:11:32.653Z,9.01
2019-03-02T18:14:23.840Z,8.97
2019-03-02T18:17:15.266Z,9.09
2019-03-02T18:19:44.385Z,9.00
2019-03-02T18:22:14.015Z,9.08
2019-03-02T18:24:43.208Z,9.18
2019-03-02T18:27:14.565Z,9.14
2019-03-02T18:29:44.036Z,9.07
2019-03-02T18:32:16.117Z,9.15
2019-03-02T18:34:45.581Z,9.20
2019-03-02T18:37:15.133Z,9.20
2019-03-02T18:39:44.613Z,9.23
2019-03-02T18:42:13.786Z,9.20
2019-03-02T18:44:43.308Z,9.20
2019-03-02T18:47:13.004Z,9.27
2019-03-02T18:50:04.651Z,9.15
2019-03-02T18:53:02.460Z,9.09
2019-03-02T18:55:32.255Z,9.01
2019-03-02T18:58:01.487Z,8.95
2019-03-02T19:00:33.705Z,9.01
2019-03-02T19:03:03.183Z,9.13
2019-03-02T19:05:33.167Z,8.99
2019-03-02T19:08:03.121Z,8.94
2019-03-02T19:10:32.582Z,8.94
2019-03-02T19:13:04.976Z,9.06
2019-03-02T19:15:33.085Z,8.94
2019-03-02T19:18:03.123Z,8.96
2019-03-02T19:20:32.326Z,8.97
2019-03-02T19:23:03.543Z,8.95
2019-03-02T19:25:33.536Z,8.93
2019-03-02T19:28:03.133Z,8.91
2019-03-02T19:30:32.600Z,8.96
2019-03-02T19:33:02.130Z,8.92
2019-03-02T19:35:31.488Z,8.95
2019-03-02T19:38:01.439Z,9.04
2019-03-02T19:40:32.176Z,9.05
2019-03-02T19:43:01.366Z,9.10
2019-03-02T19:45:30.641Z,9.07
2019-03-02T19:48:00.047Z,9.14
2019-03-02T19:50:29.270Z,9.16
2019-03-02T19:52:58.459Z,9.17
2019-03-02T19:55:27.639Z,9.22
2019-03-02T19:57:56.818Z,9.20
2019-03-02T20:00:28.172Z,9.23
2019-03-02T20:02:57.572Z,9.20
2019-03-02T20:05:26.974Z,9.19
2019-03-02T20:07:56.246Z,9.18
2019-03-02T20:10:25.719Z,9.16
2019-03-02T20:12:55.183Z,9.15
2019-03-02T20:15:26.366Z,9.22
2019-03-02T20:17:57.598Z,9.21
2019-03-02T20:20:26.914Z,9.16
2019-03-02T20:22:58.528Z,9.12
2019-03-02T20:25:27.742Z,9.14
2019-03-02T20:27:56.978Z,9.22
2019-03-02T20:30:26.716Z,9.13
2019-03-02T20:32:55.886Z,9.12
2019-03-02T20:35:25.919Z,9.12
2019-03-02T20:37:55.122Z,9.13
2019-03-02T20:40:24.430Z,9.13
2019-03-02T20:42:53.614Z,9.20
2019-03-02T20:45:22.956Z,9.19
2019-03-02T20:47:52.120Z,9.12
2019-03-02T20:50:21.274Z,9.13
2019-03-02T20:52:51.698Z,9.15
2019-03-02T20:55:20.983Z,9.13
2019-03-02T20:57:50.585Z,9.15
2019-03-02T21:00:22.703Z,9.10
2019-03-02T21:02:52.142Z,9.11
2019-03-02T21:05:21.494Z,9.11
2019-03-02T21:07:50.782Z,9.08
2019-03-02T21:10:21.005Z,9.10
2019-03-02T21:12:51.277Z,9.08
2019-03-02T21:15:25.268Z,9.10
2019-03-02T21:17:55.141Z,9.13
2019-03-02T21:20:25.735Z,9.13
2019-03-02T21:22:55.247Z,9.12
2019-03-02T21:25:24.420Z,9.09
2019-03-02T21:27:53.599Z,9.09
2019-03-02T21:30:22.884Z,9.11
2019-03-02T21:32:52.939Z,9.10
2019-03-02T21:35:22.447Z,9.13
2019-03-02T21:37:51.637Z,9.12
2019-03-02T21:40:21.600Z,9.12
2019-03-02T21:42:52.881Z,9.15
2019-03-02T21:45:22.894Z,9.07
2019-03-02T21:47:52.809Z,9.08
2019-03-02T21:50:24.861Z,9.12
2019-03-02T21:52:55.159Z,9.13
2019-03-02T21:55:24.616Z,9.14
2019-03-02T21:57:53.811Z,9.21
2019-03-02T22:00:24.869Z,9.27
2019-03-02T22:02:54.151Z,9.23
2019-03-02T22:05:23.408Z,9.23
2019-03-02T22:07:52.977Z,9.19
2019-03-02T22:10:28.178Z,9.16
2019-03-02T22:12:57.789Z,9.18
2019-03-02T22:15:28.751Z,9.24
2019-03-02T22:17:59.084Z,9.24
2019-03-02T22:20:28.671Z,9.25
2019-03-02T22:23:00.672Z,9.23
2019-03-02T22:25:30.106Z,9.21
2019-03-02T22:27:59.293Z,9.25
2019-03-02T22:30:28.526Z,9.28
2019-03-02T22:32:57.732Z,9.31
2019-03-02T22:35:27.009Z,9.33
2019-03-02T22:37:56.533Z,9.33
2019-03-02T22:40:26.027Z,9.33
2019-03-02T22:42:55.331Z,9.40
2019-03-02T22:45:24.662Z,9.38
2019-03-02T22:47:54.766Z,9.39
2019-03-02T22:50:31.084Z,9.39
2019-03-02T22:53:01.395Z,9.38
2019-03-02T22:55:31.096Z,9.39
2019-03-02T22:58:08.702Z,9.42
2019-03-02T23:01:23.960Z,9.46
2019-03-02T23:03:54.197Z,9.46
2019-03-02T23:06:23.376Z,9.55
2019-03-02T23:08:52.541Z,9.54
2019-03-02T23:11:21.734Z,9.48
2019-03-02T23:13:50.877Z,9.52
2019-03-02T23:16:20.857Z,9.54
2019-03-02T23:18:50.314Z,9.53
2019-03-02T23:21:19.627Z,9.53
2019-03-02T23:23:49.095Z,9.50
2019-03-02T23:26:18.297Z,9.52
2019-03-02T23:28:48.047Z,9.55
2019-03-02T23:31:17.213Z,9.48
2019-03-02T23:33:46.368Z,9.53
2019-03-02T23:36:15.628Z,9.50
2019-03-02T23:38:44.785Z,9.53
2019-03-02T23:41:14.054Z,9.55
2019-03-02T23:43:45.571Z,9.55
2019-03-02T23:46:14.777Z,9.53
2019-03-02T23:48:44.711Z,9.51
2019-03-02T23:51:13.926Z,9.50
2019-03-02T23:53:43.189Z,9.49
2019-03-02T23:56:12.614Z,9.43
2019-03-02T23:58:41.783Z,9.49
